Time,TemperatureF,DewpointF,PressureIn,WindDirection,WindDirectionDegrees,WindSpeedMPH,WindSpeedGustMPH,Humidity,HourlyPrecipIn,Conditions,Clouds,dailyrainin,SoftwareType,DateUTC
2013-08-05 00:12:00,57.0,55.0,-100.00,SE,135,3.0,4.0,93,-99.99,,,-99.99,,2013-08-05 05:12:00,
2013-08-05 00:22:00,57.0,55.0,-100.00,SE,135,3.0,4.0,93,-99.99,,,-99.99,,2013-08-05 05:22:00,
2013-08-05 00:32:00,57.0,55.0,-100.00,SE,135,3.0,4.0,93,-99.99,,,-99.99,,2013-08-05 05:32:00,
2013-08-05 00:43:00,57.0,55.0,-100.00,SE,135,3.0,4.0,93,-99.99,,,-99.99,,2013-08-05 05:43:00,
2013-08-05 01:12:00,56.0,54.0,-100.00,SE,140,3.0,5.0,95,-99.99,,,-99.99,,2013-08-05 06:12:00,
2013-08-05 01:22:00,56.0,54.0,-100.00,SE,140,3.0,5.0,95,-99.99,,,-99.99,,2013-08-05 06:22:00,
2013-08-05 01:32:00,56.0,54.0,-100.00,SE,140,3.0,5.0,95,-99.99,,,-99.99,,2013-08-05 06:32:00,
2013-08-05 01:43:00,56.0,54.0,-100.00,SE,140,3.0,5.0,95,-99.99,,,-99.99,,2013-08-05 06:43:00,
2013-08-05 01:52:00,56.0,54.0,-100.00,SE,140,3.0,5.0,95,-99.99,,,-99.99,,2013-08-05 06:52:00,
2013-08-05 01:53:00,55.0,54.0,-100.00,SE,130,2.0,5.0,96,-99.99,,,-99.99,,2013-08-05 06:53:00,
2013-08-05 02:12:00,55.0,54.0,-100.00,SE,130,2.0,5.0,96,-99.99,,,-99.99,,2013-08-05 07:12:00,
2013-08-05 02:22:00,55.0,54.0,-100.00,SE,130,2.0,5.0,96,-99.99,,,-99.99,,2013-08-05 07:22:00,
2013-08-05 02:32:00,55.0,54.0,-100.00,SE,130,2.0,5.0,96,-99.99,,,-99.99,,2013-08-05 07:32:00,
2013-08-05 02:43:00,55.0,54.0,-100.00,SE,130,2.0,5.0,96,-99.99,,,-99.99,,2013-08-05 07:43:00,
2013-08-05 03:12:00,56.0,55.0,-100.00,SE,140,2.0,4.0,94,-99.99,,,-99.99,,2013-08-05 08:12:00,
2013-08-05 03:22:00,56.0,55.0,-100.00,SE,140,2.0,4.0,94,-99.99,,,-99.99,,2013-08-05 08:22:00,
2013-08-05 03:34:00,56.0,55.0,-100.00,SE,140,2.0,4.0,94,-99.99,,,-99.99,,2013-08-05 08:34:00,
2013-08-05 03:48:00,56.0,55.0,-100.00,SE,140,2.0,4.0,94,-99.99,,,-99.99,,2013-08-05 08:48:00,
2013-08-05 03:53:00,56.0,55.0,-100.00,SE,140,2.0,4.0,94,-99.99,,,-99.99,,2013-08-05 08:53:00,
2013-08-05 04:18:00,58.0,55.0,-100.00,SE,140,1.0,4.0,89,-99.99,,,-99.99,,2013-08-05 09:18:00,
2013-08-05 04:27:00,58.0,55.0,-100.00,SE,140,1.0,4.0,89,-99.99,,,-99.99,,2013-08-05 09:27:00,
2013-08-05 04:39:00,58.0,55.0,-100.00,SE,140,1.0,4.0,89,-99.99,,,-99.99,,2013-08-05 09:39:00,
2013-08-05 04:47:00,58.0,55.0,-100.00,SE,140,1.0,4.0,89,-99.99,,,-99.99,,2013-08-05 09:47:00,
2013-08-05 04:53:00,58.0,57.0,-100.00,SSW,195,2.0,4.0,96,-99.99,,,-99.99,,2013-08-05 09:53:00,
2013-08-05 05:15:00,58.0,57.0,-100.00,SSW,195,2.0,4.0,96,-99.99,,,-99.99,,2013-08-05 10:15:00,
2013-08-05 05:27:00,58.0,57.0,-100.00,SSW,195,2.0,4.0,96,-99.99,,,-99.99,,2013-08-05 10:27:00,
2013-08-05 05:33:00,58.0,57.0,-100.00,SSW,195,2.0,4.0,96,-99.99,,,-99.99,,2013-08-05 10:33:00,
2013-08-05 05:47:00,58.0,57.0,-100.00,SSW,195,2.0,4.0,96,-99.99,,,-99.99,,2013-08-05 10:47:00,
2013-08-05 05:53:00,58.0,58.0,-100.00,SE,140,4.0,8.0,97,-99.99,,,-99.99,,2013-08-05 10:53:00,
2013-08-05 06:14:00,58.0,58.0,-100.00,SE,140,4.0,8.0,97,-99.99,,,-99.99,,2013-08-05 11:14:00,
2013-08-05 06:28:00,58.0,58.0,-100.00,SE,140,4.0,8.0,97,-99.99,,,-99.99,,2013-08-05 11:28:00,
2013-08-05 06:49:00,58.0,58.0,-100.00,SE,140,4.0,8.0,97,-99.99,,,-99.99,,2013-08-05 11:49:00,
2013-08-05 06:53:00,59.0,58.0,-100.00,South,180,6.0,13.0,96,-99.99,,,-99.99,,2013-08-05 11:53:00,
2013-08-05 07:17:00,59.0,58.0,-100.00,South,180,6.0,13.0,96,-99.99,,,-99.99,,2013-08-05 12:17:00,
2013-08-05 07:27:00,59.0,58.0,-100.00,South,180,6.0,13.0,96,-99.99,,,-99.99,,2013-08-05 12:27:00,
2013-08-05 07:33:00,59.0,58.0,-100.00,South,180,6.0,13.0,96,-99.99,,,-99.99,,2013-08-05 12:33:00,
2013-08-05 07:48:00,59.0,58.0,-100.00,South,180,6.0,13.0,96,-99.99,,,-99.99,,2013-08-05 12:48:00,
2013-08-05 07:53:00,60.0,59.0,-100.00,South,185,4.0,9.0,96,-99.99,,,-99.99,,2013-08-05 12:53:00,
2013-08-05 08:13:00,60.0,59.0,-100.00,South,185,4.0,9.0,96,-99.99,,,-99.99,,2013-08-05 13:13:00,
2013-08-05 08:27:00,60.0,59.0,-100.00,South,185,4.0,9.0,96,-99.99,,,-99.99,,2013-08-05 13:27:00,
2013-08-05 08:43:00,60.0,59.0,-100.00,South,185,4.0,9.0,96,-99.99,,,-99.99,,2013-08-05 13:43:00,
2013-08-05 08:53:00,62.0,60.0,-100.00,SE,140,1.0,6.0,93,-99.99,,,-99.99,,2013-08-05 13:53:00,
2013-08-05 09:17:00,62.0,60.0,-100.00,SE,140,1.0,6.0,93,-99.99,,,-99.99,,2013-08-05 14:17:00,
2013-08-05 09:38:00,62.0,60.0,-100.00,SE,140,1.0,6.0,93,-99.99,,,-99.99,,2013-08-05 14:38:00,
2013-08-05 09:47:00,62.0,60.0,-100.00,SE,140,1.0,6.0,93,-99.99,,,-99.99,,2013-08-05 14:47:00,
2013-08-05 09:53:00,66.0,61.0,-100.00,South,175,4.0,7.0,84,-99.99,,,-99.99,,2013-08-05 14:53:00,
2013-08-05 10:15:00,66.0,61.0,-100.00,South,175,4.0,7.0,84,-99.99,,,-99.99,,2013-08-05 15:15:00,
2013-08-05 10:25:00,66.0,61.0,-100.00,South,175,4.0,7.0,84,-99.99,,,-99.99,,2013-08-05 15:25:00,
2013-08-05 10:47:00,66.0,61.0,-100.00,South,175,4.0,7.0,84,-99.99,,,-99.99,,2013-08-05 15:47:00,
2013-08-05 10:53:00,69.0,62.0,-100.00,South,190,7.0,12.0,79,-99.99,,,-99.99,,2013-08-05 15:53:00,
2013-08-05 11:17:00,69.0,62.0,-100.00,South,190,7.0,12.0,79,-99.99,,,-99.99,,2013-08-05 16:17:00,
2013-08-05 11:26:00,69.0,62.0,-100.00,South,190,7.0,12.0,79,-99.99,,,-99.99,,2013-08-05 16:26:00,
2013-08-05 11:33:00,69.0,62.0,-100.00,South,190,7.0,12.0,79,-99.99,,,-99.99,,2013-08-05 16:33:00,
2013-08-05 11:45:00,69.0,62.0,-100.00,South,190,7.0,12.0,79,-99.99,,,-99.99,,2013-08-05 16:45:00,
2013-08-05 12:16:00,67.0,61.0,-100.00,SSW,200,6.0,14.0,80,-99.99,,,-99.99,,2013-08-05 17:16:00,
2013-08-05 12:37:00,67.0,61.0,-100.00,SSW,200,6.0,14.0,80,-99.99,,,-99.99,,2013-08-05 17:37:00,
2013-08-05 12:47:00,67.0,61.0,-100.00,SSW,200,6.0,14.0,80,-99.99,,,-99.99,,2013-08-05 17:47:00,
2013-08-05 12:53:00,68.0,62.0,-100.00,SSE,160,4.0,9.0,81,-99.99,,,-99.99,,2013-08-05 17:53:00,
2013-08-05 13:13:00,68.0,62.0,-100.00,SSE,160,4.0,9.0,81,-99.99,,,-99.99,,2013-08-05 18:13:00,
2013-08-05 13:26:00,68.0,62.0,-100.00,SSE,160,4.0,9.0,81,-99.99,,,-99.99,,2013-08-05 18:26:00,
2013-08-05 13:37:00,68.0,62.0,-100.00,SSE,160,4.0,9.0,81,-99.99,,,-99.99,,2013-08-05 18:37:00,
2013-08-05 13:44:00,68.0,62.0,-100.00,SSE,160,4.0,9.0,81,-99.99,,,-99.99,,2013-08-05 18:44:00,
2013-08-05 14:37:00,70.0,63.0,-100.00,South,175,4.0,7.0,81,-99.99,,,-99.99,,2013-08-05 19:37:00,
2013-08-05 14:50:00,70.0,63.0,-100.00,South,175,4.0,7.0,81,-99.99,,,-99.99,,2013-08-05 19:50:00,
2013-08-05 15:15:00,72.0,64.0,-100.00,SSE,160,2.0,7.0,78,-99.99,,,-99.99,,2013-08-05 20:15:00,
2013-08-05 15:28:00,72.0,64.0,-100.00,SSE,160,2.0,7.0,78,-99.99,,,-99.99,,2013-08-05 20:28:00,
2013-08-05 15:37:00,72.0,64.0,-100.00,SSE,160,2.0,7.0,78,-99.99,,,-99.99,,2013-08-05 20:37:00,
2013-08-05 15:47:00,72.0,64.0,-100.00,SSE,160,2.0,7.0,78,-99.99,,,-99.99,,2013-08-05 20:47:00,
2013-08-05 15:53:00,70.0,65.0,-100.00,South,185,3.0,7.0,83,-99.99,,,-99.99,,2013-08-05 20:53:00,
2013-08-05 16:18:00,70.0,65.0,-100.00,South,185,3.0,7.0,83,-99.99,,,-99.99,,2013-08-05 21:18:00,
2013-08-05 16:26:00,70.0,65.0,-100.00,South,185,3.0,7.0,83,-99.99,,,-99.99,,2013-08-05 21:26:00,
2013-08-05 16:34:00,70.0,65.0,-100.00,South,185,3.0,7.0,83,-99.99,,,-99.99,,2013-08-05 21:34:00,
2013-08-05 16:46:00,70.0,65.0,-100.00,South,185,3.0,7.0,83,-99.99,,,-99.99,,2013-08-05 21:46:00,
2013-08-05 16:53:00,71.0,65.0,-100.00,South,175,4.0,10.0,81,-99.99,,,-99.99,,2013-08-05 21:53:00,
2013-08-05 17:26:00,71.0,65.0,-100.00,South,175,4.0,10.0,81,-99.99,,,-99.99,,2013-08-05 22:26:00,
2013-08-05 17:37:00,71.0,65.0,-100.00,South,175,4.0,10.0,81,-99.99,,,-99.99,,2013-08-05 22:37:00,
2013-08-05 17:44:00,71.0,65.0,-100.00,South,175,4.0,10.0,81,-99.99,,,-99.99,,2013-08-05 22:44:00,
2013-08-05 18:16:00,72.0,65.0,-100.00,SW,215,6.0,9.0,80,-99.99,,,-99.99,,2013-08-05 23:16:00,
2013-08-05 18:33:00,72.0,65.0,-100.00,SW,215,6.0,9.0,80,-99.99,,,-99.99,,2013-08-05 23:33:00,
2013-08-05 18:46:00,72.0,65.0,-100.00,SW,215,6.0,9.0,80,-99.99,,,-99.99,,2013-08-05 23:46:00,
2013-08-05 19:15:00,70.0,65.0,-100.00,SW,215,4.0,9.0,84,-99.99,,,-99.99,,2013-08-06 00:15:00,
2013-08-05 19:24:00,70.0,65.0,-100.00,SW,215,4.0,9.0,84,-99.99,,,-99.99,,2013-08-06 00:24:00,
2013-08-05 19:37:00,70.0,65.0,-100.00,SW,215,4.0,9.0,84,-99.99,,,-99.99,,2013-08-06 00:37:00,
2013-08-05 19:45:00,70.0,65.0,-100.00,SW,215,4.0,9.0,84,-99.99,,,-99.99,,2013-08-06 00:45:00,
2013-08-05 19:54:00,69.0,66.0,-100.00,South,180,4.0,6.0,89,-99.99,,,-99.99,,2013-08-06 00:54:00,
2013-08-05 20:14:00,69.0,66.0,-100.00,South,180,4.0,6.0,89,-99.99,,,-99.99,,2013-08-06 01:14:00,
2013-08-05 20:27:00,69.0,66.0,-100.00,South,180,4.0,6.0,89,-99.99,,,-99.99,,2013-08-06 01:27:00,
2013-08-05 20:39:00,69.0,66.0,-100.00,South,180,4.0,6.0,89,-99.99,,,-99.99,,2013-08-06 01:39:00,
2013-08-05 20:48:00,69.0,66.0,-100.00,South,180,4.0,6.0,89,-99.99,,,-99.99,,2013-08-06 01:48:00,
2013-08-05 21:15:00,67.0,65.0,-100.00,South,190,3.0,6.0,95,-99.99,,,-99.99,,2013-08-06 02:15:00,
2013-08-05 21:26:00,67.0,65.0,-100.00,South,190,3.0,6.0,95,-99.99,,,-99.99,,2013-08-06 02:26:00,
2013-08-05 21:32:00,67.0,65.0,-100.00,South,190,3.0,6.0,95,-99.99,,,-99.99,,2013-08-06 02:32:00,
2013-08-05 21:46:00,67.0,65.0,-100.00,South,190,3.0,6.0,95,-99.99,,,-99.99,,2013-08-06 02:46:00,
2013-08-05 21:52:00,67.0,65.0,-100.00,South,190,3.0,6.0,95,-99.99,,,-99.99,,2013-08-06 02:52:00,
2013-08-05 22:16:00,65.0,64.0,-100.00,SE,145,3.0,6.0,97,-99.99,,,-99.99,,2013-08-06 03:16:00,
2013-08-05 22:26:00,65.0,64.0,-100.00,SE,145,3.0,6.0,97,-99.99,,,-99.99,,2013-08-06 03:26:00,
2013-08-05 22:35:00,65.0,64.0,-100.00,SE,145,3.0,6.0,97,-99.99,,,-99.99,,2013-08-06 03:35:00,
2013-08-05 22:45:00,65.0,64.0,-100.00,SE,145,3.0,6.0,97,-99.99,,,-99.99,,2013-08-06 03:45:00,
2013-08-05 22:52:00,65.0,64.0,-100.00,SE,145,3.0,6.0,97,-99.99,,,-99.99,,2013-08-06 03:52:00,
2013-08-05 22:53:00,65.0,64.0,-100.00,SSW,200,4.0,7.0,98,-99.99,,,-99.99,,2013-08-06 03:53:00,
2013-08-05 23:11:00,65.0,64.0,-100.00,SSW,200,4.0,7.0,98,-99.99,,,-99.99,,2013-08-06 04:11:00,
2013-08-05 23:22:00,65.0,64.0,-100.00,SSW,200,4.0,7.0,98,-99.99,,,-99.99,,2013-08-06 04:22:00,
2013-08-05 23:33:00,65.0,64.0,-100.00,SSW,200,4.0,7.0,98,-99.99,,,-99.99,,2013-08-06 04:33:00,
2013-08-05 23:44:00,65.0,64.0,-100.00,SSW,200,4.0,7.0,98,-99.99,,,-99.99,,2013-08-06 04:44:00,
2013-08-05 23:53:00,65.0,64.0,-100.00,South,185,4.0,7.0,98,-99.99,,,-99.99,,2013-08-06 04:53:00,